Time;durP1;ratioP1;P1;durP2;ratioP2;P2;SDS_P1;SDS_P2;PMS_P1;PMS_P2;Temp;Humidity;BMP_temperature;BMP_pressure;BME280_temperature;BME280_humidity;BME280_pressure;Samples;Min_cycle;Max_cycle;Signal;HPM_P1;HPM_P2
2022/10/17 00:01:11;;;;;;;8.40;4.00;;;14.20;99.90;;;;;;5043233;28;20048;-44
2022/10/17 00:03:38;;;;;;;9.85;4.53;;;14.10;99.90;;;;;;5042277;28;20025;-45
2022/10/17 00:06:12;;;;;;;8.30;4.15;;;14.20;99.90;;;;;;5044425;28;20071;-45
2022/10/17 00:08:42;;;;;;;8.55;4.47;;;14.20;99.90;;;;;;5043442;28;20047;-44
2022/10/17 00:11:14;;;;;;;9.38;4.50;;;14.00;99.90;;;;;;5042936;28;20448;-44
2022/10/17 00:13:39;;;;;;;8.93;4.70;;;14.20;99.90;;;;;;5044821;28;20535;-47
2022/10/17 00:16:05;;;;;;;11.60;5.05;;;14.20;99.90;;;;;;5046203;28;20037;-45
2022/10/17 00:18:31;;;;;;;10.70;4.80;;;14.10;99.90;;;;;;5046544;28;20427;-45
2022/10/17 00:20:57;;;;;;;9.90;5.03;;;14.20;99.90;;;;;;5041696;28;20041;-43
2022/10/17 00:23:23;;;;;;;9.95;4.90;;;14.10;99.90;;;;;;5043903;28;20167;-44
2022/10/17 00:25:58;;;;;;;10.05;5.20;;;14.10;99.90;;;;;;5045026;28;20151;-44
2022/10/17 00:28:23;;;;;;;12.05;5.50;;;14.20;99.90;;;;;;5046143;28;20037;-43
2022/10/17 00:31:00;;;;;;;10.18;5.32;;;14.20;99.90;;;;;;5045272;28;20400;-43
2022/10/17 00:33:27;;;;;;;12.18;5.93;;;14.00;99.90;;;;;;5042841;28;20048;-44
2022/10/17 00:36:08;;;;;;;9.73;5.72;;;14.00;99.90;;;;;;5044968;28;20057;-46
2022/10/17 00:38:34;;;;;;;10.90;5.70;;;14.10;99.90;;;;;;5047122;28;20804;-44
2022/10/17 00:41:01;;;;;;;12.55;5.95;;;14.20;99.90;;;;;;5041850;28;20041;-43
2022/10/17 00:43:28;;;;;;;12.35;5.63;;;14.10;99.90;;;;;;5041552;28;20063;-43
2022/10/17 00:45:54;;;;;;;11.90;6.00;;;14.20;99.90;;;;;;5043909;28;20047;-45
2022/10/17 00:48:21;;;;;;;9.73;6.35;;;14.20;99.90;;;;;;5045448;28;20060;-45
2022/10/17 00:50:48;;;;;;;10.35;6.30;;;14.00;99.90;;;;;;5042393;28;20036;-46
2022/10/17 00:53:15;;;;;;;11.55;6.90;;;14.00;99.90;;;;;;5041238;28;20475;-43
2022/10/17 00:55:48;;;;;;;9.88;6.10;;;14.20;99.90;;;;;;5042132;28;20037;-43
2022/10/17 00:58:14;;;;;;;12.23;6.75;;;14.10;99.90;;;;;;5043805;28;20167;-45
2022/10/17 01:00:41;;;;;;;9.55;6.47;;;14.20;99.90;;;;;;5045592;28;20128;-44
2022/10/17 01:03:06;;;;;;;8.55;6.82;;;13.90;99.90;;;;;;5047004;28;20057;-43
2022/10/17 01:05:32;;;;;;;11.98;7.55;;;13.90;99.90;;;;;;5041257;28;20083;-43
2022/10/17 01:07:58;;;;;;;11.18;7.68;;;14.00;99.90;;;;;;5041433;28;20057;-43
2022/10/17 01:10:35;;;;;;;8.95;6.55;;;14.00;99.90;;;;;;5042435;28;20574;-44
2022/10/17 01:13:33;;;;;;;11.43;7.68;;;14.00;99.90;;;;;;5045194;28;20041;-44
2022/10/17 01:16:17;;;;;;;10.52;7.68;;;13.70;99.90;;;;;;5037785;28;20041;-46
2022/10/17 01:19:01;;;;;;;11.00;7.22;;;13.80;99.90;;;;;;5042279;28;20068;-46
2022/10/17 01:21:44;;;;;;;11.18;8.50;;;13.70;99.90;;;;;;5044547;28;20048;-45
2022/10/17 01:24:47;;;;;;;12.45;9.00;;;13.90;99.90;;;;;;5044158;28;20418;-45
2022/10/17 01:27:31;;;;;;;12.20;8.88;;;13.70;99.90;;;;;;5038928;28;20348;-43
2022/10/17 01:30:09;;;;;;;12.10;9.13;;;13.60;99.90;;;;;;5042856;28;20124;-46
2022/10/17 01:32:47;;;;;;;11.85;9.40;;;13.70;99.90;;;;;;5043981;28;20102;-44
2022/10/17 01:35:31;;;;;;;11.90;9.32;;;13.50;99.90;;;;;;5044394;28;20442;-44
2022/10/17 01:38:23;;;;;;;11.02;9.93;;;13.80;99.90;;;;;;5044896;28;20395;-47
2022/10/17 01:41:08;;;;;;;12.27;10.07;;;13.50;99.90;;;;;;5044379;28;20037;-47
2022/10/17 01:43:38;;;;;;;12.55;10.25;;;13.50;99.90;;;;;;5043016;28;20106;-45
2022/10/17 01:46:25;;;;;;;14.38;10.80;;;13.50;99.90;;;;;;5045065;28;20073;-43
2022/10/17 01:48:51;;;;;;;15.18;10.13;;;13.80;99.90;;;;;;5042514;28;20048;-45
2022/10/17 01:51:30;;;;;;;13.82;10.80;;;13.80;99.90;;;;;;5041087;28;20585;-44
2022/10/17 01:54:26;;;;;;;13.27;10.68;;;13.60;99.90;;;;;;5041638;28;20033;-46
2022/10/17 01:56:57;;;;;;;12.68;11.15;;;13.70;99.90;;;;;;5044958;28;20037;-45
2022/10/17 01:59:28;;;;;;;14.02;11.50;;;13.50;99.90;;;;;;5045731;28;20037;-45
2022/10/17 02:01:56;;;;;;;13.07;10.82;;;13.50;99.90;;;;;;5046359;28;20041;-44
2022/10/17 02:04:21;;;;;;;12.25;10.52;;;13.70;99.90;;;;;;5044722;28;20083;-45
2022/10/17 02:06:47;;;;;;;13.98;11.68;;;13.60;99.90;;;;;;5039438;28;20080;-44
2022/10/17 02:09:23;;;;;;;14.85;11.65;;;13.50;99.90;;;;;;5040103;28;20086;-43
2022/10/17 02:12:23;;;;;;;13.45;11.63;;;13.40;99.90;;;;;;5043426;28;20096;-44
2022/10/17 02:15:07;;;;;;;15.57;12.68;;;13.70;99.90;;;;;;5045453;28;20033;-43
2022/10/17 02:17:36;;;;;;;13.82;11.45;;;13.40;99.90;;;;;;5039001;28;20095;-43
2022/10/17 02:20:24;;;;;;;15.88;13.43;;;13.30;99.90;;;;;;5041874;28;20076;-46
2022/10/17 02:22:54;;;;;;;13.93;12.43;;;13.70;99.90;;;;;;5044276;28;20041;-43
2022/10/17 02:25:35;;;;;;;14.77;12.25;;;13.40;99.90;;;;;;5048213;28;20032;-44
2022/10/17 02:28:22;;;;;;;17.65;13.60;;;13.30;99.90;;;;;;5041320;28;20040;-43
2022/10/17 02:31:01;;;;;;;13.75;12.30;;;13.60;99.90;;;;;;5044198;28;20044;-44
2022/10/17 02:33:34;;;;;;;16.38;13.60;;;13.30;99.90;;;;;;5048135;28;20071;-43
2022/10/17 02:36:05;;;;;;;14.48;13.00;;;13.60;99.90;;;;;;5046767;28;20052;-43
2022/10/17 02:38:33;;;;;;;14.80;13.30;;;13.60;99.90;;;;;;5043193;28;20565;-44
2022/10/17 02:40:59;;;;;;;15.52;13.93;;;13.40;99.90;;;;;;5045261;28;20045;-43
2022/10/17 02:43:26;;;;;;;15.13;13.52;;;13.20;99.90;;;;;;5048185;28;20041;-44
2022/10/17 02:45:52;;;;;;;15.57;13.25;;;13.30;99.90;;;;;;5047591;28;20044;-43
2022/10/17 02:48:37;;;;;;;17.02;14.77;;;13.40;99.90;;;;;;5042775;28;20068;-44
2022/10/17 02:51:06;;;;;;;18.00;14.93;;;13.30;99.90;;;;;;5046533;28;20500;-46
2022/10/17 02:53:54;;;;;;;17.00;14.57;;;13.60;99.90;;;;;;5047620;28;20041;-43
2022/10/17 02:56:21;;;;;;;19.48;14.93;;;13.30;99.90;;;;;;5042455;28;20436;-45
2022/10/17 02:58:57;;;;;;;18.60;15.75;;;13.20;99.90;;;;;;5044499;28;20037;-44
2022/10/17 03:01:23;;;;;;;18.88;16.88;;;13.20;99.90;;;;;;5046074;28;20040;-45
2022/10/17 03:03:49;;;;;;;19.15;17.13;;;13.60;99.90;;;;;;5047325;28;20041;-45
2022/10/17 03:06:15;;;;;;;18.75;16.77;;;13.30;99.90;;;;;;5045739;28;20083;-43
2022/10/17 03:08:40;;;;;;;19.67;17.52;;;13.50;99.90;;;;;;5043250;28;20165;-43
2022/10/17 03:11:06;;;;;;;19.10;17.08;;;13.10;99.90;;;;;;5045054;28;20052;-43
2022/10/17 03:13:32;;;;;;;18.90;17.10;;;13.40;99.90;;;;;;5046833;28;20037;-43
2022/10/17 03:15:57;;;;;;;21.10;18.05;;;13.10;99.90;;;;;;5046261;28;20040;-44
2022/10/17 03:18:23;;;;;;;19.83;17.67;;;13.20;99.90;;;;;;5047192;28;20045;-46
2022/10/17 03:20:49;;;;;;;19.83;17.58;;;13.60;99.90;;;;;;5042919;28;20041;-48
2022/10/17 03:23:15;;;;;;;19.67;17.58;;;13.50;99.90;;;;;;5045121;28;20068;-45
2022/10/17 03:25:40;;;;;;;22.13;19.73;;;13.50;99.90;;;;;;5046561;28;20033;-43
2022/10/17 03:28:06;;;;;;;20.45;18.35;;;13.30;99.90;;;;;;5047749;28;20045;-45
2022/10/17 03:30:32;;;;;;;22.15;19.85;;;13.30;99.90;;;;;;5039913;28;20045;-44
2022/10/17 03:32:58;;;;;;;22.23;19.83;;;13.60;99.90;;;;;;5043587;28;20048;-44
2022/10/17 03:35:24;;;;;;;22.00;18.98;;;13.20;99.90;;;;;;5044958;28;20103;-45
2022/10/17 03:37:50;;;;;;;20.25;18.25;;;13.20;99.90;;;;;;5046432;28;20037;-43
2022/10/17 03:40:16;;;;;;;23.50;20.40;;;13.20;99.90;;;;;;5048418;28;20479;-45
2022/10/17 03:42:42;;;;;;;21.73;19.48;;;13.40;99.90;;;;;;5042465;28;20041;-43
2022/10/17 03:45:08;;;;;;;21.08;18.95;;;13.20;99.90;;;;;;5043606;28;20036;-43
2022/10/17 03:47:33;;;;;;;22.23;19.60;;;13.40;99.90;;;;;;5045286;28;20025;-45
2022/10/17 03:49:59;;;;;;;23.25;20.83;;;13.70;99.90;;;;;;5047561;28;20075;-46
2022/10/17 03:52:25;;;;;;;22.90;20.50;;;13.70;99.90;;;;;;5044280;28;20040;-44
2022/10/17 03:54:50;;;;;;;22.55;20.23;;;13.20;99.90;;;;;;5042721;28;20035;-44
2022/10/17 03:57:17;;;;;;;23.60;21.05;;;13.20;99.90;;;;;;5044966;28;20523;-43
2022/10/17 03:59:43;;;;;;;23.48;18.35;;;13.70;99.90;;;;;;5046699;28;20047;-44
2022/10/17 04:02:08;;;;;;;26.77;21.00;;;13.50;99.90;;;;;;5044494;28;20104;-43
2022/10/17 04:04:34;;;;;;;24.20;21.63;;;13.70;99.90;;;;;;5041775;28;20028;-43
2022/10/17 04:07:00;;;;;;;24.35;21.70;;;13.60;99.90;;;;;;5043682;28;20025;-43
2022/10/17 04:09:25;;;;;;;23.67;21.17;;;13.70;99.90;;;;;;5046123;28;20075;-45
2022/10/17 04:11:51;;;;;;;23.90;21.48;;;13.40;99.90;;;;;;5047849;28;20491;-46
2022/10/17 04:14:17;;;;;;;24.10;21.20;;;13.30;99.90;;;;;;5040957;28;20029;-46
2022/10/17 04:16:43;;;;;;;24.92;22.33;;;13.30;99.90;;;;;;5041881;28;20441;-43
2022/10/17 04:19:11;;;;;;;25.13;21.10;;;13.30;99.90;;;;;;5045065;28;20049;-45
2022/10/17 04:21:37;;;;;;;25.42;21.42;;;13.80;99.90;;;;;;5047305;28;20040;-45
2022/10/17 04:24:03;;;;;;;25.45;21.67;;;13.30;99.90;;;;;;5040087;28;20357;-44
2022/10/17 04:26:29;;;;;;;24.95;22.23;;;13.60;99.90;;;;;;5042380;28;20068;-47
2022/10/17 04:28:55;;;;;;;26.45;22.40;;;13.40;99.90;;;;;;5045062;28;20499;-47
2022/10/17 04:31:20;;;;;;;25.40;22.70;;;13.90;99.90;;;;;;5047340;28;20033;-45
2022/10/17 04:33:48;;;;;;;24.55;21.92;;;13.60;99.90;;;;;;5042404;28;20048;-44
2022/10/17 04:36:16;;;;;;;26.05;21.33;;;14.10;99.90;;;;;;5040737;28;20527;-44
2022/10/17 04:38:42;;;;;;;27.15;23.08;;;13.90;99.90;;;;;;5043261;28;20048;-44
2022/10/17 04:41:11;;;;;;;27.70;22.55;;;14.20;99.90;;;;;;5045385;28;20036;-43
2022/10/17 04:43:37;;;;;;;26.52;20.60;;;13.90;99.90;;;;;;5046054;28;20488;-44
2022/10/17 04:46:06;;;;;;;22.70;20.25;;;14.50;99.90;;;;;;5043127;28;20393;-45
2022/10/17 04:48:32;;;;;;;24.70;20.58;;;14.30;99.90;;;;;;5042901;28;20063;-45
2022/10/17 04:51:00;;;;;;;24.23;20.13;;;14.20;99.90;;;;;;5044357;28;20028;-44
2022/10/17 04:53:26;;;;;;;22.98;19.35;;;14.70;99.90;;;;;;5046748;28;20358;-46
2022/10/17 04:55:52;;;;;;;25.80;20.67;;;14.40;99.90;;;;;;5043208;28;20041;-45
2022/10/17 04:58:19;;;;;;;22.48;18.98;;;14.70;99.90;;;;;;5040743;28;20408;-44
2022/10/17 05:00:45;;;;;;;26.45;19.08;;;14.70;99.90;;;;;;5042324;28;20037;-46
2022/10/17 05:03:11;;;;;;;24.42;19.50;;;14.80;99.90;;;;;;5044191;28;20040;-43
2022/10/17 05:05:38;;;;;;;22.58;18.92;;;14.30;99.90;;;;;;5045377;28;20055;-43
2022/10/17 05:08:05;;;;;;;23.10;18.20;;;14.90;99.90;;;;;;5043000;28;20044;-45
2022/10/17 05:10:39;;;;;;;20.88;17.90;;;14.30;99.90;;;;;;5041767;28;20043;-45
2022/10/17 05:13:05;;;;;;;23.42;18.65;;;14.70;99.90;;;;;;5042165;28;20072;-46
2022/10/17 05:15:30;;;;;;;18.38;16.30;;;14.80;99.90;;;;;;5045649;28;20037;-47
2022/10/17 05:17:57;;;;;;;21.55;18.55;;;15.00;99.90;;;;;;5044816;28;20115;-46
2022/10/17 05:20:24;;;;;;;19.77;17.50;;;15.00;99.90;;;;;;5038623;28;20049;-44
2022/10/17 05:22:50;;;;;;;24.20;18.33;;;15.10;99.90;;;;;;5042126;28;20080;-45
2022/10/17 05:25:16;;;;;;;21.35;17.95;;;14.70;99.90;;;;;;5044673;28;20106;-45
2022/10/17 05:27:41;;;;;;;18.98;16.20;;;14.70;99.90;;;;;;5045668;28;20442;-44
2022/10/17 05:30:08;;;;;;;21.45;16.15;;;15.40;99.90;;;;;;5040096;28;20052;-44
2022/10/17 05:32:34;;;;;;;20.02;16.67;;;14.80;99.90;;;;;;5043233;28;20033;-45
2022/10/17 05:35:00;;;;;;;21.73;16.73;;;15.30;99.90;;;;;;5044561;28;20060;-43
2022/10/17 05:37:28;;;;;;;19.05;16.35;;;14.90;99.90;;;;;;5046205;28;20534;-44
2022/10/17 05:39:54;;;;;;;19.05;16.08;;;15.10;99.90;;;;;;5039909;28;20123;-42
2022/10/17 05:42:19;;;;;;;18.35;15.98;;;15.00;99.90;;;;;;5041279;28;20041;-42
2022/10/17 05:44:45;;;;;;;21.73;16.50;;;15.00;99.90;;;;;;5042613;28;20453;-44
2022/10/17 05:47:11;;;;;;;19.90;15.75;;;14.90;99.90;;;;;;5042924;28;20037;-42
2022/10/17 05:49:36;;;;;;;18.27;16.27;;;15.50;99.90;;;;;;5046241;28;20041;-45
2022/10/17 05:52:02;;;;;;;17.67;15.50;;;15.20;99.90;;;;;;5039491;28;20041;-43
2022/10/17 05:54:30;;;;;;;21.40;15.48;;;15.00;99.90;;;;;;5043411;28;20075;-44
2022/10/17 05:56:56;;;;;;;18.08;14.85;;;15.00;99.90;;;;;;5038758;28;20029;-43
2022/10/17 05:59:24;;;;;;;21.80;16.70;;;15.30;99.90;;;;;;5040678;28;20326;-48
2022/10/17 06:01:50;;;;;;;20.95;15.90;;;14.90;99.90;;;;;;5042662;28;20052;-46
2022/10/17 06:04:16;;;;;;;19.05;15.98;;;15.00;99.90;;;;;;5050524;28;20049;-46
2022/10/17 06:06:41;;;;;;;17.83;15.52;;;15.30;99.90;;;;;;5049424;28;20111;-44
2022/10/17 06:09:07;;;;;;;19.13;16.00;;;15.00;99.90;;;;;;5047310;28;20528;-47
2022/10/17 06:11:34;;;;;;;20.77;15.70;;;15.00;99.90;;;;;;5047224;28;20047;-44
2022/10/17 06:14:00;;;;;;;19.25;15.75;;;15.10;99.90;;;;;;5046989;28;20538;-45
2022/10/17 06:16:26;;;;;;;21.63;15.20;;;15.30;99.90;;;;;;5049027;28;20070;-45
2022/10/17 06:18:52;;;;;;;18.50;14.73;;;15.00;99.90;;;;;;5046186;28;20136;-48
2022/10/17 06:21:21;;;;;;;20.30;16.02;;;15.00;99.90;;;;;;5045679;28;20048;-45
2022/10/17 06:23:47;;;;;;;18.50;15.30;;;15.40;99.90;;;;;;5047439;28;20041;-45
2022/10/17 06:26:13;;;;;;;18.10;14.45;;;15.40;99.90;;;;;;5047226;28;20083;-45
2022/10/17 06:28:39;;;;;;;18.23;15.40;;;15.60;99.90;;;;;;5049592;28;20051;-45
2022/10/17 06:31:11;;;;;;;20.15;15.38;;;15.00;99.90;;;;;;5042839;28;20141;-46
2022/10/17 06:33:37;;;;;;;17.27;15.43;;;15.50;99.90;;;;;;5045157;28;20098;-43
2022/10/17 06:36:04;;;;;;;20.00;14.88;;;15.60;99.90;;;;;;5048666;28;20470;-44
2022/10/17 06:38:30;;;;;;;17.48;14.95;;;15.20;99.90;;;;;;5047324;28;20040;-44
2022/10/17 06:41:17;;;;;;;17.90;14.75;;;15.10;99.90;;;;;;5042931;28;20033;-47
2022/10/17 06:43:47;;;;;;;16.20;14.10;;;15.40;99.90;;;;;;5044975;28;20484;-46
2022/10/17 06:46:14;;;;;;;20.27;13.75;;;15.70;99.90;;;;;;5046312;28;20045;-41
2022/10/17 06:48:40;;;;;;;17.38;13.63;;;15.20;99.90;;;;;;5048601;28;20103;-43
2022/10/17 06:51:08;;;;;;;16.35;13.80;;;15.50;99.90;;;;;;5045740;28;20037;-43
2022/10/17 06:53:35;;;;;;;15.98;13.32;;;15.20;99.90;;;;;;5039451;28;20036;-42
2022/10/17 06:56:03;;;;;;;21.38;13.88;;;15.70;99.90;;;;;;5040244;28;20033;-44
2022/10/17 06:58:30;;;;;;;16.50;13.10;;;15.20;99.90;;;;;;5040360;28;20041;-43
2022/10/17 07:01:05;;;;;;;17.65;13.35;;;15.30;99.90;;;;;;5041128;28;20049;-43
2022/10/17 07:03:31;;;;;;;20.25;12.95;;;15.50;99.90;;;;;;5040150;28;20037;-43
2022/10/17 07:05:57;;;;;;;15.18;13.15;;;15.90;99.90;;;;;;5040797;28;20040;-42
2022/10/17 07:08:23;;;;;;;17.80;12.75;;;15.40;99.90;;;;;;5041260;28;20043;-43
2022/10/17 07:10:49;;;;;;;15.25;12.95;;;15.40;99.90;;;;;;5040657;28;20377;-41
2022/10/17 07:13:16;;;;;;;19.63;12.27;;;15.40;99.90;;;;;;5040828;28;20033;-42
2022/10/17 07:15:42;;;;;;;14.90;12.73;;;15.50;99.90;;;;;;5055994;28;20041;-42
2022/10/17 07:18:08;;;;;;;15.45;12.55;;;16.00;99.90;;;;;;5041103;28;20037;-45
2022/10/17 07:20:33;;;;;;;16.85;12.40;;;15.60;99.90;;;;;;5041506;28;20055;-43
2022/10/17 07:22:59;;;;;;;20.85;12.60;;;15.80;99.90;;;;;;5041526;28;20037;-44
2022/10/17 07:25:25;;;;;;;14.60;12.50;;;16.10;99.90;;;;;;5039577;28;20090;-42
2022/10/17 07:27:51;;;;;;;16.70;12.73;;;16.20;99.90;;;;;;5041384;28;20041;-44
2022/10/17 07:30:18;;;;;;;14.52;12.30;;;15.70;99.90;;;;;;5038862;28;20502;-44
2022/10/17 07:32:44;;;;;;;14.30;12.30;;;16.20;99.90;;;;;;5039288;28;20045;-43
2022/10/17 07:35:10;;;;;;;13.57;12.18;;;16.10;99.90;;;;;;5039238;28;20037;-43
2022/10/17 07:37:37;;;;;;;14.18;11.88;;;16.30;99.90;;;;;;5038472;28;20462;-46
2022/10/17 07:40:05;;;;;;;14.30;12.07;;;16.10;99.90;;;;;;5038528;28;20053;-45
2022/10/17 07:42:31;;;;;;;15.98;12.63;;;16.20;99.90;;;;;;5039637;28;20077;-43
2022/10/17 07:44:57;;;;;;;18.77;12.88;;;16.30;99.90;;;;;;5039096;28;20029;-43
2022/10/17 07:47:23;;;;;;;17.10;12.52;;;16.10;99.90;;;;;;5037667;28;20091;-44
2022/10/17 07:49:48;;;;;;;15.50;12.23;;;16.00;99.90;;;;;;5040068;28;20363;-43
2022/10/17 07:52:15;;;;;;;13.65;11.80;;;16.40;99.90;;;;;;5041509;28;20041;-44
2022/10/17 07:54:41;;;;;;;17.25;11.93;;;15.90;99.90;;;;;;5039944;28;20055;-43
2022/10/17 07:57:07;;;;;;;17.63;12.23;;;16.40;99.90;;;;;;5038306;28;20067;-45
2022/10/17 07:59:35;;;;;;;15.77;12.13;;;16.10;99.90;;;;;;5037255;28;20041;-45
2022/10/17 08:02:01;;;;;;;15.43;12.30;;;16.20;99.90;;;;;;5038319;28;20116;-43
2022/10/17 08:04:28;;;;;;;15.40;12.40;;;15.90;99.90;;;;;;5052848;28;20043;-44
2022/10/17 08:06:54;;;;;;;16.65;12.30;;;16.20;99.90;;;;;;5034354;28;20439;-45
2022/10/17 08:09:19;;;;;;;14.45;12.13;;;16.00;99.90;;;;;;5040177;28;20049;-45
2022/10/17 08:11:45;;;;;;;13.18;11.70;;;16.20;99.90;;;;;;5038394;28;20127;-45
2022/10/17 08:14:12;;;;;;;14.65;11.60;;;16.30;99.90;;;;;;5039620;28;20075;-46
2022/10/17 08:16:39;;;;;;;15.40;12.23;;;15.90;99.90;;;;;;5035199;28;20025;-44
2022/10/17 08:19:05;;;;;;;14.73;11.43;;;16.40;99.90;;;;;;5039101;28;20412;-43
2022/10/17 08:21:30;;;;;;;17.67;11.82;;;16.30;99.90;;;;;;5039719;28;20040;-44
2022/10/17 08:23:56;;;;;;;15.90;12.00;;;15.90;99.90;;;;;;5039567;28;20206;-43
2022/10/17 08:26:22;;;;;;;14.95;12.13;;;16.10;99.90;;;;;;5039374;28;20125;-43
2022/10/17 08:28:48;;;;;;;15.50;12.73;;;16.20;99.90;;;;;;5039927;28;20461;-46
2022/10/17 08:31:17;;;;;;;14.18;12.68;;;15.80;99.90;;;;;;5040420;28;20071;-44
2022/10/17 08:33:43;;;;;;;14.73;12.00;;;15.80;99.90;;;;;;5036968;28;20488;-43
2022/10/17 08:36:12;;;;;;;14.32;12.80;;;16.20;99.90;;;;;;5035398;28;20094;-45
2022/10/17 08:38:38;;;;;;;18.77;12.80;;;16.00;99.90;;;;;;5036597;28;20037;-45
2022/10/17 08:41:33;;;;;;;17.75;13.15;;;16.00;99.90;;;;;;5035993;28;20041;-43
2022/10/17 08:44:26;;;;;;;16.45;12.40;;;16.40;99.90;;;;;;5032768;28;20037;-43
2022/10/17 08:46:57;;;;;;;14.90;12.00;;;16.00;99.90;;;;;;5035387;28;20444;-45
2022/10/17 08:49:47;;;;;;;17.25;13.18;;;16.20;99.90;;;;;;5035235;28;20033;-46
2022/10/17 08:52:25;;;;;;;14.88;12.52;;;16.20;99.90;;;;;;5034381;28;20039;-43
2022/10/17 08:54:51;;;;;;;14.52;12.38;;;16.00;99.90;;;;;;5034658;28;20564;-45
2022/10/17 08:57:17;;;;;;;15.85;12.15;;;16.40;99.90;;;;;;5033868;28;20116;-44
2022/10/17 08:59:50;;;;;;;14.15;12.63;;;16.20;99.90;;;;;;5037806;28;20099;-45
2022/10/17 09:02:41;;;;;;;17.27;12.77;;;16.00;99.90;;;;;;5037118;28;20029;-43
2022/10/17 09:05:46;;;;;;;15.10;12.18;;;15.90;99.90;;;;;;5036286;28;20533;-45
2022/10/17 09:08:43;;;;;;;18.35;13.05;;;16.50;99.90;;;;;;5028421;28;20045;-44
2022/10/17 09:11:28;;;;;;;19.58;13.23;;;16.20;99.90;;;;;;5048943;28;20044;-44
2022/10/17 09:14:05;;;;;;;19.77;12.75;;;16.50;99.90;;;;;;5032992;28;20029;-47
2022/10/17 09:16:39;;;;;;;16.55;13.02;;;16.40;99.90;;;;;;5034394;28;20587;-43
2022/10/17 09:19:16;;;;;;;15.05;12.00;;;16.00;99.90;;;;;;5032680;28;20102;-45
2022/10/17 09:21:52;;;;;;;19.80;13.63;;;16.30;99.90;;;;;;5027207;28;20072;-46
2022/10/17 09:24:29;;;;;;;17.27;13.38;;;16.70;99.90;;;;;;5028784;28;20507;-46
2022/10/17 09:26:55;;;;;;;17.77;12.57;;;16.70;99.90;;;;;;5028944;28;20055;-44
2022/10/17 09:29:23;;;;;;;19.30;13.65;;;16.10;99.90;;;;;;5024911;28;20045;-45
2022/10/17 09:32:02;;;;;;;19.33;13.68;;;16.20;99.90;;;;;;5023593;28;20041;-48
2022/10/17 09:34:30;;;;;;;18.52;13.68;;;16.20;99.90;;;;;;5033632;28;20033;-44
2022/10/17 09:37:01;;;;;;;17.95;14.20;;;16.50;99.90;;;;;;5039095;28;20151;-49
2022/10/17 09:39:30;;;;;;;18.20;13.82;;;16.20;99.90;;;;;;5038006;28;20493;-45
2022/10/17 09:41:59;;;;;;;19.00;15.23;;;16.70;99.90;;;;;;5036296;28;20044;-45
2022/10/17 09:44:35;;;;;;;23.35;15.13;;;16.40;99.90;;;;;;5039404;28;20492;-44
2022/10/17 09:47:10;;;;;;;19.70;15.27;;;16.60;99.90;;;;;;5039278;28;20102;-44
2022/10/17 09:49:44;;;;;;;23.85;16.75;;;16.10;99.90;;;;;;5037822;28;20048;-43
2022/10/17 09:52:38;;;;;;;24.30;16.45;;;16.50;99.90;;;;;;5038938;28;20079;-48
2022/10/17 09:55:24;;;;;;;23.00;15.57;;;16.40;99.90;;;;;;5035330;28;20049;-46
2022/10/17 09:57:52;;;;;;;21.75;17.55;;;16.50;99.90;;;;;;5024417;28;21010;-46
2022/10/17 10:00:34;;;;;;;24.35;17.35;;;16.30;99.90;;;;;;5037733;28;20395;-45
2022/10/17 10:03:22;;;;;;;27.60;20.35;;;16.10;99.90;;;;;;5036031;28;20045;-45
2022/10/17 10:05:58;;;;;;;24.35;19.73;;;16.60;99.90;;;;;;5038578;28;20480;-47
2022/10/17 10:08:31;;;;;;;25.40;19.33;;;16.60;99.90;;;;;;5038328;28;20037;-46
2022/10/17 10:11:03;;;;;;;27.48;19.25;;;16.10;99.90;;;;;;5037311;28;20052;-45
2022/10/17 10:13:31;;;;;;;29.85;20.13;;;16.50;99.90;;;;;;5035072;28;20048;-45
2022/10/17 10:16:12;;;;;;;27.70;19.75;;;16.00;99.90;;;;;;5035579;28;20029;-45
2022/10/17 10:18:38;;;;;;;23.50;18.85;;;16.70;99.90;;;;;;5033533;28;20037;-46
2022/10/17 10:21:09;;;;;;;28.05;19.80;;;16.10;99.90;;;;;;5034705;28;20057;-44
2022/10/17 10:23:39;;;;;;;27.85;20.10;;;16.10;99.90;;;;;;5034094;28;20160;-47
2022/10/17 10:26:21;;;;;;;25.45;19.17;;;16.30;99.90;;;;;;5036066;28;20050;-46
2022/10/17 10:29:03;;;;;;;27.38;19.70;;;15.90;99.90;;;;;;5037443;28;20136;-46
2022/10/17 10:31:35;;;;;;;25.95;19.50;;;16.10;99.90;;;;;;5038058;28;20032;-46
2022/10/17 10:34:14;;;;;;;27.90;19.75;;;16.30;99.90;;;;;;5038238;28;20210;-47
2022/10/17 10:36:49;;;;;;;27.40;19.65;;;16.20;99.90;;;;;;5038291;28;20049;-47
2022/10/17 10:39:26;;;;;;;27.40;19.30;;;15.90;99.90;;;;;;5038390;28;23185;-46
2022/10/17 10:41:52;;;;;;;25.83;20.27;;;16.50;99.90;;;;;;5036699;28;20094;-46
2022/10/17 10:44:22;;;;;;;27.73;21.25;;;16.20;99.90;;;;;;5034671;28;20048;-47
2022/10/17 10:47:27;;;;;;;32.83;22.25;;;15.90;99.90;;;;;;5035020;28;20024;-48
2022/10/17 10:50:28;;;;;;;28.98;20.17;;;16.20;99.90;;;;;;5029041;28;20053;-46
2022/10/17 10:53:05;;;;;;;27.13;20.27;;;15.90;99.90;;;;;;5036821;28;20144;-47
2022/10/17 10:55:41;;;;;;;33.08;23.05;;;16.00;99.90;;;;;;5037325;28;20048;-47
2022/10/17 10:58:25;;;;;;;30.52;22.13;;;16.50;99.90;;;;;;5038698;28;20049;-46
2022/10/17 11:00:52;;;;;;;31.70;23.10;;;16.00;99.90;;;;;;5037348;28;20045;-47
2022/10/17 11:03:29;;;;;;;29.48;22.85;;;16.70;99.90;;;;;;5038961;28;20128;-48
2022/10/17 11:06:13;;;;;;;32.63;22.83;;;16.00;99.90;;;;;;5038291;28;20040;-47
2022/10/17 11:08:59;;;;;;;31.15;21.75;;;16.70;99.90;;;;;;5038273;28;20040;-46
2022/10/17 11:11:32;;;;;;;34.30;22.67;;;16.00;99.90;;;;;;5038053;28;20031;-47
2022/10/17 11:14:08;;;;;;;31.08;22.10;;;16.10;99.90;;;;;;5038873;28;20073;-45
2022/10/17 11:16:34;;;;;;;31.05;21.63;;;16.70;99.90;;;;;;5038549;28;20036;-47
2022/10/17 11:19:35;;;;;;;33.45;22.45;;;16.50;99.90;;;;;;5038052;28;20088;-46
2022/10/17 11:22:26;;;;;;;28.92;21.60;;;16.10;99.90;;;;;;5034108;28;20056;-46
2022/10/17 11:24:58;;;;;;;31.45;22.33;;;16.60;99.90;;;;;;5037274;28;20059;-47
2022/10/17 11:27:27;;;;;;;31.40;22.67;;;16.80;99.90;;;;;;5038486;28;20025;-48
2022/10/17 11:29:52;;;;;;;29.55;21.45;;;16.70;99.90;;;;;;5035012;28;20028;-47
2022/10/17 11:32:43;;;;;;;27.02;20.90;;;16.90;99.90;;;;;;5035361;28;20047;-45
2022/10/17 11:35:47;;;;;;;30.35;22.23;;;16.60;99.90;;;;;;5035337;28;20091;-46
2022/10/17 11:38:40;;;;;;;31.13;21.95;;;17.00;99.90;;;;;;5034804;28;20061;-48
2022/10/17 11:41:14;;;;;;;29.40;20.80;;;16.50;99.90;;;;;;5035473;28;20045;-44
2022/10/17 11:43:49;;;;;;;28.25;20.75;;;16.40;99.90;;;;;;5035600;28;20033;-47
2022/10/17 11:46:25;;;;;;;26.00;19.90;;;16.50;99.90;;;;;;5034167;28;20731;-48
2022/10/17 11:49:05;;;;;;;24.77;18.95;;;16.90;99.90;;;;;;5032738;28;20074;-46
2022/10/17 11:51:42;;;;;;;23.27;18.52;;;16.70;99.90;;;;;;5035443;28;20036;-46
2022/10/17 11:54:40;;;;;;;24.13;19.02;;;16.80;99.90;;;;;;5031324;28;20349;-45
2022/10/17 11:57:14;;;;;;;21.95;18.13;;;17.20;99.90;;;;;;5031603;28;20516;-46
2022/10/17 11:59:53;;;;;;;22.20;17.35;;;16.60;99.90;;;;;;5028863;28;20044;-45
2022/10/17 12:02:29;;;;;;;19.60;16.88;;;17.30;99.90;;;;;;5032135;28;20504;-45
2022/10/17 12:05:14;;;;;;;20.50;16.15;;;16.60;99.90;;;;;;5048300;28;20050;-46
2022/10/17 12:08:12;;;;;;;19.02;15.85;;;17.20;99.90;;;;;;5032684;28;20421;-43
2022/10/17 12:11:05;;;;;;;17.42;14.60;;;16.60;99.90;;;;;;5027281;28;20167;-46
2022/10/17 12:13:31;;;;;;;18.38;14.75;;;16.70;99.90;;;;;;5034531;28;20094;-45
2022/10/17 12:16:20;;;;;;;16.00;14.13;;;17.30;99.90;;;;;;5031421;28;20485;-47
2022/10/17 12:19:27;;;;;;;15.93;12.40;;;16.60;99.90;;;;;;5030079;28;20455;-45
2022/10/17 12:22:11;;;;;;;16.77;13.30;;;17.00;99.90;;;;;;5028857;28;20124;-46
2022/10/17 12:24:42;;;;;;;15.95;12.70;;;16.50;99.90;;;;;;5031922;28;20087;-45
2022/10/17 12:27:46;;;;;;;17.15;14.35;;;16.90;99.90;;;;;;5030267;28;20206;-47
2022/10/17 12:30:25;;;;;;;18.15;14.77;;;17.10;99.90;;;;;;4954108;28;20504;-44
2022/10/17 12:33:21;;;;;;;16.55;14.63;;;16.40;99.90;;;;;;5024033;28;20052;-46
2022/10/17 12:35:49;;;;;;;17.20;14.40;;;17.10;99.90;;;;;;5028483;28;20148;-47
2022/10/17 12:38:20;;;;;;;17.88;14.95;;;16.90;99.90;;;;;;5037247;28;20052;-45
2022/10/17 12:40:48;;;;;;;21.92;15.88;;;16.40;99.90;;;;;;5035495;28;20198;-46
2022/10/17 12:43:14;;;;;;;18.63;14.30;;;16.30;99.90;;;;;;5035898;28;20033;-48
2022/10/17 12:45:56;;;;;;;18.55;15.57;;;16.40;99.90;;;;;;5036292;28;20043;-46
2022/10/17 12:48:37;;;;;;;20.88;14.52;;;16.40;99.90;;;;;;5036223;28;20492;-46
2022/10/17 12:51:08;;;;;;;10.65;8.73;;;16.30;99.90;;;;;;5036635;28;20379;-48
2022/10/17 12:53:46;;;;;;;6.75;3.90;;;16.90;99.90;;;;;;5036684;28;20046;-46